Time;durP1;ratioP1;P1;durP2;ratioP2;P2;SDS_P1;SDS_P2;PMS_P1;PMS_P2;Temp;Humidity;BMP_temperature;BMP_pressure;BME280_temperature;BME280_humidity;BME280_pressure;Samples;Min_cycle;Max_cycle;Signal;HPM_P1;HPM_P2
2023/01/23 00:01:41;;;;;;;74.37;23.10;;;;;;;-1.47;68.44;102437.12;1881403;76;21543;-55
2023/01/23 00:04:12;;;;;;;53.08;15.88;;;;;;;-1.50;68.86;102437.41;1881333;76;21117;-51
2023/01/23 00:06:41;;;;;;;62.67;21.77;;;;;;;-1.53;68.81;102442.45;1880894;76;21020;-51
2023/01/23 00:09:10;;;;;;;112.80;43.92;;;;;;;-1.54;68.53;102444.16;1866661;75;21030;-61
2023/01/23 00:11:39;;;;;;;137.43;59.20;;;;;;;-1.57;68.35;102446.23;1859319;75;21513;-60
2023/01/23 00:14:07;;;;;;;126.78;51.45;;;;;;;-1.59;68.36;102442.67;1858228;76;21097;-56
2023/01/23 00:16:36;;;;;;;109.97;48.33;;;;;;;-1.60;68.36;102449.98;1855473;76;21049;-58
2023/01/23 00:19:05;;;;;;;95.85;38.95;;;;;;;-1.60;68.34;102451.27;1855030;76;21168;-58
2023/01/23 00:21:33;;;;;;;88.27;31.62;;;;;;;-1.60;68.28;102448.69;1857246;74;21196;-59
2023/01/23 00:24:02;;;;;;;71.05;26.62;;;;;;;-1.61;68.12;102452.08;1860160;76;21489;-57
2023/01/23 00:26:32;;;;;;;69.70;26.45;;;;;;;-1.61;68.13;102457.24;1853688;76;21007;-58
2023/01/23 00:29:01;;;;;;;64.17;27.62;;;;;;;-1.63;68.10;102457.59;1858655;76;21612;-57
2023/01/23 00:31:33;;;;;;;56.68;23.92;;;;;;;-1.64;67.92;102465.28;1856107;76;21654;-61
2023/01/23 00:34:04;;;;;;;78.10;29.65;;;;;;;-1.67;67.92;102460.02;1861380;76;21125;-61
2023/01/23 00:36:37;;;;;;;74.37;26.23;;;;;;;-1.70;67.88;102472.39;1856655;76;21094;-63
2023/01/23 00:39:08;;;;;;;54.95;21.12;;;;;;;-1.72;67.90;102475.32;1855879;76;21179;-63
2023/01/23 00:41:37;;;;;;;49.60;19.48;;;;;;;-1.72;67.84;102464.99;1860727;76;22161;-62
2023/01/23 00:44:05;;;;;;;56.80;19.82;;;;;;;-1.72;68.10;102469.28;1859626;74;21235;-59
2023/01/23 00:46:34;;;;;;;35.17;13.15;;;;;;;-1.75;68.67;102473.93;1856722;75;21116;-55
2023/01/23 00:49:03;;;;;;;63.45;20.20;;;;;;;-1.77;68.62;102467.41;1859601;76;21097;-62
2023/01/23 00:51:32;;;;;;;47.70;17.92;;;;;;;-1.80;68.62;102475.03;1854605;76;21053;-61
2023/01/23 00:54:01;;;;;;;44.55;17.00;;;;;;;-1.81;68.82;102477.55;1861152;76;21235;-60
2023/01/23 00:56:31;;;;;;;43.20;16.87;;;;;;;-1.90;68.86;102474.59;1856597;76;21231;-59
2023/01/23 00:58:59;;;;;;;57.58;18.62;;;;;;;-1.96;68.98;102477.81;1857305;76;21061;-58
2023/01/23 01:01:30;;;;;;;28.92;10.72;;;;;;;-1.97;68.91;102473.48;1858700;76;21050;-59
2023/01/23 01:03:58;;;;;;;37.10;14.75;;;;;;;-1.96;68.76;102472.23;1861321;76;21132;-59
2023/01/23 01:06:28;;;;;;;44.83;16.25;;;;;;;-1.96;68.57;102472.65;1855301;76;21160;-58
2023/01/23 01:08:59;;;;;;;50.52;18.10;;;;;;;-1.97;68.43;102479.94;1857295;76;21643;-60
2023/01/23 01:11:27;;;;;;;45.70;16.02;;;;;;;-1.98;68.30;102475.16;1858831;74;21592;-58
2023/01/23 01:13:58;;;;;;;31.55;13.20;;;;;;;-1.98;68.26;102479.03;1857373;76;21176;-58
2023/01/23 01:16:26;;;;;;;45.90;15.10;;;;;;;-1.99;68.22;102486.33;1857647;76;21149;-58
2023/01/23 01:18:55;;;;;;;42.85;15.75;;;;;;;-2.00;68.12;102477.22;1855277;76;21129;-58
2023/01/23 01:21:23;;;;;;;42.75;16.30;;;;;;;-2.02;68.06;102482.32;1869714;75;21163;-60
2023/01/23 01:23:52;;;;;;;39.08;13.98;;;;;;;-2.03;68.02;102480.58;1890510;74;21097;-59
2023/01/23 01:26:21;;;;;;;41.30;16.93;;;;;;;-2.04;67.92;102477.51;1910915;74;22000;-60
2023/01/23 01:28:51;;;;;;;49.35;18.32;;;;;;;-2.04;67.99;102479.22;1910843;74;21500;-61
2023/01/23 01:31:19;;;;;;;36.25;15.23;;;;;;;-2.07;67.93;102479.95;1864816;76;21214;-58
2023/01/23 01:33:49;;;;;;;39.88;14.58;;;;;;;-2.08;67.89;102474.34;1907435;74;21219;-56
2023/01/23 01:36:22;;;;;;;39.33;15.68;;;;;;;-2.08;67.87;102474.75;1913948;73;21117;-59
2023/01/23 01:38:51;;;;;;;42.75;12.18;;;;;;;-2.10;67.87;102478.56;1914471;74;21113;-62
2023/01/23 01:41:20;;;;;;;48.15;14.98;;;;;;;-2.12;67.85;102478.91;1912119;74;21218;-60
2023/01/23 01:43:50;;;;;;;60.58;19.57;;;;;;;-2.12;67.79;102478.00;1910294;74;21129;-61
2023/01/23 01:46:25;;;;;;;59.95;19.12;;;;;;;-2.12;67.94;102472.84;1908046;73;21704;-60
2023/01/23 01:49:14;;;;;;;37.40;13.20;;;;;;;-2.14;67.85;102474.06;1908662;74;21144;-56
2023/01/23 01:51:52;;;;;;;52.67;16.48;;;;;;;-2.17;67.82;102471.38;1906243;74;21085;-57
2023/01/23 01:54:23;;;;;;;44.88;16.62;;;;;;;-2.19;67.70;102470.02;1905510;74;21121;-59
2023/01/23 01:57:13;;;;;;;53.10;16.80;;;;;;;-2.21;67.63;102472.08;1895339;74;21231;-56
2023/01/23 01:59:54;;;;;;;52.17;17.32;;;;;;;-2.24;67.67;102468.95;1913346;74;21141;-56
2023/01/23 02:02:28;;;;;;;55.92;19.25;;;;;;;-2.28;67.80;102467.48;1899274;74;21171;-49
2023/01/23 02:05:06;;;;;;;64.27;18.27;;;;;;;-2.33;68.01;102470.72;1906820;74;21042;-57
2023/01/23 02:07:43;;;;;;;52.67;19.27;;;;;;;-2.33;68.02;102469.86;1875474;74;21100;-53
2023/01/23 02:10:15;;;;;;;49.00;18.35;;;;;;;-2.36;68.10;102473.20;1905660;72;21701;-55
2023/01/23 02:12:48;;;;;;;65.70;20.75;;;;;;;-2.40;68.17;102472.61;1947580;72;21061;-54
2023/01/23 02:15:19;;;;;;;48.70;18.55;;;;;;;-2.40;68.16;102474.28;1898220;74;21512;-53
2023/01/23 02:17:51;;;;;;;54.35;18.92;;;;;;;-2.45;68.31;102472.81;1949587;72;21031;-56
2023/01/23 02:20:23;;;;;;;61.92;20.70;;;;;;;-2.46;68.42;102471.04;1982553;72;21020;-56
2023/01/23 02:23:08;;;;;;;36.80;17.42;;;;;;;-2.46;68.55;102472.74;1982669;72;21020;-54
2023/01/23 02:25:52;;;;;;;51.42;17.00;;;;;;;-2.46;68.67;102471.04;1919375;72;21060;-57
2023/01/23 02:28:20;;;;;;;;;;;;;;;-2.39;68.68;102471.77;1899220;76;21051;-57
2023/01/23 02:30:54;;;;;;;51.28;18.50;;;;;;;-2.31;68.52;102466.05;1896614;76;20117;-57
2023/01/23 02:33:23;;;;;;;52.78;18.50;;;;;;;-2.34;68.54;102472.85;1896104;75;21137;-56
2023/01/23 02:35:53;;;;;;;47.83;15.93;;;;;;;-2.36;68.46;102469.33;1896452;75;21157;-56
2023/01/23 02:38:28;;;;;;;52.15;16.97;;;;;;;-2.37;68.42;102470.55;1896510;75;21805;-55
2023/01/23 02:41:00;;;;;;;43.05;16.48;;;;;;;-2.41;68.48;102473.41;1896366;76;21129;-55
2023/01/23 02:43:35;;;;;;;51.90;15.95;;;;;;;-2.44;68.50;102475.84;1896729;76;21024;-55
2023/01/23 02:46:08;;;;;;;47.90;16.48;;;;;;;-2.44;68.49;102481.01;1896497;76;21076;-55
2023/01/23 02:48:43;;;;;;;49.50;17.62;;;;;;;-2.47;68.65;102483.48;1896625;76;21039;-54
2023/01/23 02:51:11;;;;;;;31.15;13.55;;;;;;;-2.49;68.70;102486.79;1896462;76;21023;-55
2023/01/23 02:53:41;;;;;;;39.83;17.00;;;;;;;-2.49;68.47;102483.83;1896484;76;21083;-55
2023/01/23 02:56:10;;;;;;;42.13;14.87;;;;;;;-2.49;68.42;102488.98;1896574;76;21474;-55
2023/01/23 03:01:26;;;;;;;55.52;17.48;;;;;;;-2.56;68.47;102494.70;1884942;75;21035;-54
2023/01/23 03:03:55;;;;;;;42.90;16.50;;;;;;;-2.63;68.56;102493.95;1864625;77;21631;-55
2023/01/23 03:06:24;;;;;;;38.05;15.43;;;;;;;-2.70;68.78;102500.95;1864681;77;21083;-55
2023/01/23 03:08:54;;;;;;;26.65;11.53;;;;;;;-2.71;68.77;102501.36;1864613;77;21015;-54
2023/01/23 03:11:24;;;;;;;58.20;18.52;;;;;;;-2.71;68.53;102496.20;1864577;76;21162;-55
2023/01/23 03:13:53;;;;;;;54.03;15.93;;;;;;;-2.75;68.46;102495.19;1864611;76;21090;-55
2023/01/23 03:16:22;;;;;;;82.25;21.52;;;;;;;-2.77;68.39;102499.37;1864463;77;21568;-55
2023/01/23 03:18:50;;;;;;;69.62;16.37;;;;;;;-2.77;68.31;102503.23;1864612;76;21161;-55
2023/01/23 03:21:19;;;;;;;72.27;20.70;;;;;;;-2.78;68.41;102505.36;1864554;77;21117;-55
2023/01/23 03:23:47;;;;;;;69.22;19.62;;;;;;;-2.77;68.37;102507.10;1864597;76;21031;-55
2023/01/23 03:26:16;;;;;;;67.62;16.87;;;;;;;-2.74;68.32;102506.38;1886366;75;21111;-55
2023/01/23 03:31:32;;;;;;;69.58;19.40;;;;;;;-2.68;68.33;102510.92;1889049;76;21458;-55
2023/01/23 03:34:01;;;;;;;67.80;21.15;;;;;;;-2.63;68.36;102508.14;1889165;76;21066;-56
2023/01/23 03:36:31;;;;;;;54.42;20.00;;;;;;;-2.57;68.53;102509.68;1889019;76;21474;-55
2023/01/23 03:41:47;;;;;;;116.33;22.65;;;;;;;-2.48;69.03;102512.66;1888961;76;21038;-56
2023/01/23 03:44:19;;;;;;;175.72;26.15;;;;;;;-2.40;69.11;102522.01;1889147;76;21132;-55
2023/01/23 03:46:52;;;;;;;78.17;21.68;;;;;;;-2.34;69.18;102519.30;1888990;75;21555;-56
2023/01/23 03:49:21;;;;;;;119.23;20.27;;;;;;;-2.26;69.25;102518.73;1889431;75;21517;-56
2023/01/23 03:51:51;;;;;;;270.77;31.82;;;;;;;-2.17;69.14;102525.58;1889588;75;21752;-57
2023/01/23 03:54:21;;;;;;;217.57;31.93;;;;;;;-2.10;68.98;102528.89;1889036;75;21078;-55
2023/01/23 03:56:49;;;;;;;252.87;28.98;;;;;;;-2.08;69.15;102532.41;1889115;76;21052;-55
2023/01/23 03:59:28;;;;;;;152.78;28.62;;;;;;;-2.07;69.45;102529.00;1891231;75;21490;-56
2023/01/23 04:01:59;;;;;;;274.90;31.82;;;;;;;-2.04;69.61;102536.88;1908240;75;21047;-56
2023/01/23 04:07:05;;;;;;;237.08;29.98;;;;;;;-2.01;69.89;102540.89;1849941;77;21108;-55
2023/01/23 04:09:35;;;;;;;258.65;32.88;;;;;;;-1.96;69.66;102537.19;1852348;77;21527;-56
2023/01/23 04:12:04;;;;;;;323.73;35.28;;;;;;;-2.01;69.77;102533.14;1852227;77;21052;-56
2023/01/23 04:14:36;;;;;;;376.27;36.28;;;;;;;-2.07;70.02;102543.20;1834129;77;21494;-57
2023/01/23 04:17:06;;;;;;;161.90;28.70;;;;;;;-2.04;70.31;102543.33;1852268;77;21126;-55
2023/01/23 04:19:35;;;;;;;218.88;26.95;;;;;;;-2.03;70.40;102542.53;1852396;77;21571;-56
2023/01/23 04:22:04;;;;;;;98.27;20.92;;;;;;;-2.01;70.60;102546.05;1852187;77;21625;-56
2023/01/23 04:24:35;;;;;;;148.72;24.10;;;;;;;-1.96;70.73;102539.36;1851388;77;21084;-55
2023/01/23 04:27:03;;;;;;;81.90;19.37;;;;;;;-1.88;70.57;102543.95;1852171;77;21130;-57
2023/01/23 04:29:32;;;;;;;104.30;20.57;;;;;;;-1.84;70.33;102552.33;1852212;76;21131;-56
2023/01/23 04:32:03;;;;;;;84.75;20.10;;;;;;;-1.81;70.10;102551.14;1852149;77;21076;-52
2023/01/23 04:34:34;;;;;;;175.03;26.68;;;;;;;-1.78;70.02;102553.86;1852384;77;21070;-52
2023/01/23 04:37:02;;;;;;;101.30;21.42;;;;;;;-1.75;70.04;102552.70;1852113;77;21083;-52
2023/01/23 04:39:33;;;;;;;96.65;23.18;;;;;;;-1.72;70.04;102553.22;1852207;77;21153;-55
2023/01/23 04:42:01;;;;;;;190.00;26.73;;;;;;;-1.69;69.89;102563.69;1852142;77;21084;-53
2023/01/23 04:44:33;;;;;;;79.90;20.85;;;;;;;-1.68;70.00;102562.44;1849459;77;21131;-53
2023/01/23 04:47:06;;;;;;;88.60;18.98;;;;;;;-1.69;70.12;102564.98;1833052;76;21165;-53
2023/01/23 04:49:35;;;;;;;71.97;18.40;;;;;;;-1.67;70.04;102560.34;1852149;77;21561;-54
2023/01/23 04:52:03;;;;;;;116.53;18.60;;;;;;;-1.62;70.00;102559.25;1852146;77;21056;-53
2023/01/23 04:54:34;;;;;;;70.35;20.27;;;;;;;-1.57;69.90;102566.36;1851357;76;21099;-53
2023/01/23 04:57:03;;;;;;;141.75;23.25;;;;;;;-1.51;69.84;102567.40;1852176;77;21091;-54
2023/01/23 04:59:32;;;;;;;74.97;19.45;;;;;;;-1.47;69.91;102569.31;1852264;77;21028;-53
2023/01/23 05:02:01;;;;;;;135.40;21.45;;;;;;;-1.43;70.12;102571.19;1869805;76;21086;-53
2023/01/23 05:04:31;;;;;;;113.88;21.45;;;;;;;-1.39;70.14;102572.64;1880848;76;21111;-54
2023/01/23 05:07:00;;;;;;;119.97;23.22;;;;;;;-1.32;70.10;102584.53;1880482;76;21177;-54
2023/01/23 05:09:30;;;;;;;67.08;20.43;;;;;;;-1.28;69.98;102584.70;1880207;75;21655;-55
2023/01/23 05:11:59;;;;;;;145.30;23.47;;;;;;;-1.26;69.89;102581.77;1880236;76;21059;-55
2023/01/23 05:14:29;;;;;;;203.10;25.97;;;;;;;-1.30;70.05;102586.77;1856913;75;21550;-59
2023/01/23 05:16:58;;;;;;;165.75;23.83;;;;;;;-1.33;70.29;102593.97;1847887;76;21111;-58
2023/01/23 05:19:28;;;;;;;173.80;26.75;;;;;;;-1.40;70.46;102594.16;1847253;77;21190;-56
2023/01/23 05:21:58;;;;;;;180.65;23.18;;;;;;;-1.42;70.71;102588.44;1847940;78;21085;-56
2023/01/23 05:24:26;;;;;;;67.45;17.12;;;;;;;-1.47;70.90;102593.44;1849615;76;21133;-56
2023/01/23 05:26:56;;;;;;;161.43;25.30;;;;;;;-1.44;71.05;102595.25;1847129;77;21538;-56
2023/01/23 05:29:31;;;;;;;89.77;20.10;;;;;;;-1.40;71.06;102599.74;1846996;77;21070;-55
2023/01/23 05:32:09;;;;;;;358.07;37.98;;;;;;;-1.32;71.05;102598.33;1846809;77;21187;-56
2023/01/23 05:34:42;;;;;;;235.25;29.35;;;;;;;-1.22;70.91;102596.98;1847499;76;21059;-53
2023/01/23 05:37:19;;;;;;;47.60;15.43;;;;;;;-1.17;71.08;102606.67;1845198;76;21027;-53
2023/01/23 05:39:49;;;;;;;101.50;21.82;;;;;;;-1.08;70.90;102605.29;1847245;76;21451;-54
2023/01/23 05:42:19;;;;;;;157.00;22.58;;;;;;;-1.01;70.68;102607.30;1846437;78;21075;-55
2023/01/23 05:44:53;;;;;;;88.87;17.40;;;;;;;-0.97;70.55;102593.66;1845828;76;21054;-55
2023/01/23 05:47:26;;;;;;;162.45;19.85;;;;;;;-0.92;70.35;102597.30;1846224;78;21502;-55
2023/01/23 05:49:56;;;;;;;68.67;14.28;;;;;;;-0.86;70.26;102597.52;1846712;78;21587;-57
2023/01/23 05:52:26;;;;;;;123.42;18.25;;;;;;;-0.82;70.17;102605.86;1846307;77;21045;-57
2023/01/23 05:54:55;;;;;;;43.83;15.83;;;;;;;-0.79;70.04;102607.70;1846606;76;21035;-59
2023/01/23 05:57:24;;;;;;;214.40;24.52;;;;;;;-0.76;69.95;102614.69;1848670;76;21600;-57
2023/01/23 06:00:05;;;;;;;129.68;24.05;;;;;;;-0.73;69.89;102619.56;1755971;82;21088;-56
2023/01/23 06:02:42;;;;;;;217.30;23.65;;;;;;;-0.68;69.84;102618.03;1846111;76;21040;-56
2023/01/23 06:05:28;;;;;;;300.20;29.00;;;;;;;-0.62;69.76;102622.55;1846813;78;21148;-56
2023/01/23 06:08:02;;;;;;;280.00;34.15;;;;;;;-0.58;69.74;102627.02;1848634;74;21532;-56
2023/01/23 06:10:29;;;;;;;140.47;23.20;;;;;;;-0.53;69.85;102628.07;1846828;78;21144;-56
2023/01/23 06:12:58;;;;;;;241.15;27.52;;;;;;;-0.50;70.09;102633.37;1846810;77;21043;-57
2023/01/23 06:15:27;;;;;;;238.37;26.07;;;;;;;-0.46;70.13;102624.89;1846819;77;21083;-56
2023/01/23 06:17:56;;;;;;;110.17;23.05;;;;;;;-0.44;70.19;102621.94;1869301;76;21153;-56
2023/01/23 06:20:25;;;;;;;48.50;12.68;;;;;;;-0.40;70.21;102628.98;1879971;76;21616;-56
2023/01/23 06:22:54;;;;;;;234.45;29.72;;;;;;;-0.43;70.50;102626.70;1864998;76;21054;-57
2023/01/23 06:25:23;;;;;;;80.00;19.92;;;;;;;-0.39;70.48;102624.68;1847997;78;21089;-57
2023/01/23 06:27:53;;;;;;;55.35;15.48;;;;;;;-0.34;70.37;102626.16;1849473;76;21071;-57
2023/01/23 06:30:23;;;;;;;65.32;20.12;;;;;;;-0.25;70.27;102618.72;1846840;77;21154;-57
2023/01/23 06:32:53;;;;;;;67.40;18.10;;;;;;;-0.14;70.09;102621.27;1846904;78;21126;-57
2023/01/23 06:35:23;;;;;;;227.65;29.60;;;;;;;-0.07;70.07;102621.95;1846265;77;21165;-57
2023/01/23 06:37:53;;;;;;;179.23;26.17;;;;;;;0.03;70.05;102622.28;1848977;76;21617;-57
2023/01/23 06:40:23;;;;;;;149.32;29.45;;;;;;;0.01;70.29;102621.34;1841267;76;21055;-58
2023/01/23 06:42:59;;;;;;;146.13;24.35;;;;;;;0.07;70.37;102629.31;1845086;77;21178;-57
2023/01/23 06:45:49;;;;;;;95.87;20.10;;;;;;;0.11;70.47;102629.49;1846902;78;21019;-57
2023/01/23 06:48:18;;;;;;;137.62;23.73;;;;;;;0.18;70.32;102637.94;1854099;77;21173;-56
2023/01/23 06:50:49;;;;;;;129.38;20.82;;;;;;;0.25;70.23;102634.25;1852942;77;21070;-57
2023/01/23 06:53:18;;;;;;;81.10;22.13;;;;;;;0.30;70.07;102635.30;1852709;77;21461;-56
2023/01/23 06:55:47;;;;;;;112.47;23.55;;;;;;;0.34;69.92;102638.03;1853030;77;21399;-55
2023/01/23 06:58:17;;;;;;;82.57;20.80;;;;;;;0.40;69.92;102628.28;1852784;77;21521;-56
2023/01/23 07:00:47;;;;;;;111.72;19.32;;;;;;;0.44;69.82;102633.15;1857831;76;21235;-56
2023/01/23 07:03:17;;;;;;;85.50;20.17;;;;;;;0.46;69.78;102632.78;1884950;76;21034;-57
2023/01/23 07:05:46;;;;;;;62.50;16.65;;;;;;;0.51;69.87;102636.41;1892049;75;21110;-58
2023/01/23 07:08:18;;;;;;;71.33;20.23;;;;;;;0.57;69.66;102640.48;1862644;76;21054;-57
2023/01/23 07:10:54;;;;;;;130.27;24.07;;;;;;;0.60;69.64;102641.03;1821110;79;21111;-56
2023/01/23 07:13:23;;;;;;;95.97;20.72;;;;;;;0.58;69.76;102642.27;1883605;76;21058;-60
2023/01/23 07:15:53;;;;;;;94.17;22.87;;;;;;;0.55;69.92;102648.64;1860120;76;21548;-60
2023/01/23 07:18:27;;;;;;;92.50;17.23;;;;;;;0.51;70.07;102646.78;1854591;76;21909;-60
2023/01/23 07:20:56;;;;;;;62.83;19.80;;;;;;;0.49;70.10;102647.15;1821656;79;21056;-59
2023/01/23 07:23:25;;;;;;;105.17;20.00;;;;;;;0.47;70.30;102652.70;1845401;76;21661;-59
2023/01/23 07:26:02;;;;;;;62.75;18.42;;;;;;;0.56;70.37;102653.00;1877373;76;21098;-57
2023/01/23 07:28:31;;;;;;;124.40;22.82;;;;;;;0.57;70.47;102653.45;1844917;76;21133;-61
2023/01/23 07:31:00;;;;;;;55.10;17.95;;;;;;;0.56;70.71;102653.00;1857256;77;21128;-59
2023/01/23 07:33:28;;;;;;;98.03;19.15;;;;;;;0.66;70.77;102651.16;1855117;76;21078;-57
2023/01/23 07:36:02;;;;;;;73.07;19.48;;;;;;;0.74;70.72;102656.20;1853332;76;21093;-58
2023/01/23 07:38:30;;;;;;;71.05;17.52;;;;;;;0.82;70.64;102652.55;1852899;76;21041;-58
2023/01/23 07:41:01;;;;;;;67.50;20.85;;;;;;;0.95;70.36;102660.30;1866272;76;21180;-55
2023/01/23 07:43:30;;;;;;;47.75;14.30;;;;;;;1.06;70.10;102652.43;1876569;76;21092;-57
2023/01/23 07:46:02;;;;;;;78.97;22.15;;;;;;;1.22;69.90;102655.48;1858807;76;21110;-58
2023/01/23 07:48:32;;;;;;;68.85;20.00;;;;;;;1.32;69.60;102661.43;1834048;76;21143;-58
2023/01/23 07:51:03;;;;;;;48.75;15.75;;;;;;;1.45;69.51;102657.48;1828871;78;21090;-58
2023/01/23 07:53:32;;;;;;;56.55;16.45;;;;;;;1.56;69.25;102661.70;1831987;78;21126;-57
2023/01/23 07:56:05;;;;;;;45.23;15.50;;;;;;;1.61;69.00;102662.72;1829849;77;21145;-55
2023/01/23 07:58:35;;;;;;;83.65;21.17;;;;;;;1.63;68.84;102660.61;1863494;76;21027;-55
2023/01/23 08:01:11;;;;;;;73.97;22.17;;;;;;;1.66;68.72;102658.51;1830639;77;21083;-55
2023/01/23 08:03:45;;;;;;;65.08;22.40;;;;;;;1.56;69.09;102661.27;1823895;77;21106;-58
2023/01/23 08:06:14;;;;;;;70.80;23.15;;;;;;;1.57;69.29;102659.15;1851125;77;21016;-56
2023/01/23 08:08:43;;;;;;;74.62;23.05;;;;;;;1.62;69.17;102663.16;1831875;77;21063;-57
2023/01/23 08:11:13;;;;;;;75.57;21.65;;;;;;;1.66;69.17;102659.80;1815780;77;21098;-57
2023/01/23 08:13:42;;;;;;;70.50;17.60;;;;;;;1.73;69.28;102657.84;1826876;78;21159;-57
2023/01/23 08:16:10;;;;;;;62.08;19.85;;;;;;;1.71;69.40;102659.53;1847805;77;21040;-57
2023/01/23 08:18:39;;;;;;;72.22;21.27;;;;;;;1.64;69.61;102658.89;1825257;77;21164;-57
2023/01/23 08:21:09;;;;;;;36.50;12.37;;;;;;;1.67;69.47;102655.09;1811057;77;21046;-56
2023/01/23 08:23:41;;;;;;;55.92;18.57;;;;;;;1.69;69.48;102654.28;1852006;77;21558;-56
2023/01/23 08:26:09;;;;;;;78.55;21.57;;;;;;;1.78;69.28;102651.07;1861540;77;21040;-55
2023/01/23 08:28:39;;;;;;;59.90;19.70;;;;;;;1.94;69.14;102652.39;1856450;76;21069;-57
2023/01/23 08:31:12;;;;;;;52.83;16.87;;;;;;;2.17;68.96;102645.19;1826260;77;21166;-57
2023/01/23 08:33:40;;;;;;;55.67;16.90;;;;;;;2.20;68.75;102650.48;1815297;78;21124;-57
2023/01/23 08:36:12;;;;;;;47.30;16.55;;;;;;;2.21;68.66;102653.52;1815504;79;21121;-57
2023/01/23 08:38:40;;;;;;;44.63;15.10;;;;;;;2.24;68.75;102652.31;1861921;76;21047;-56
2023/01/23 08:41:10;;;;;;;22.32;9.98;;;;;;;2.24;68.81;102648.41;1863634;77;21102;-55
2023/01/23 08:43:42;;;;;;;48.92;15.65;;;;;;;2.29;68.68;102652.45;1829751;77;21466;-56
2023/01/23 08:46:11;;;;;;;32.28;11.90;;;;;;;2.26;68.53;102648.03;1863702;77;21011;-54
2023/01/23 08:48:40;;;;;;;57.90;17.35;;;;;;;2.33;68.42;102653.41;1843421;77;21557;-53
2023/01/23 08:51:12;;;;;;;50.92;17.62;;;;;;;2.41;68.24;102651.88;1857932;76;21046;-57
2023/01/23 08:53:41;;;;;;;56.55;16.90;;;;;;;2.55;68.20;102650.50;1861398;76;21450;-57
2023/01/23 08:56:19;;;;;;;50.43;16.93;;;;;;;2.56;68.09;102647.47;1841161;78;21134;-58
2023/01/23 08:58:48;;;;;;;55.67;18.65;;;;;;;2.58;67.96;102650.55;1845047;76;21642;-57
2023/01/23 09:01:23;;;;;;;58.02;18.48;;;;;;;2.66;67.80;102649.47;1844631;76;21511;-55
2023/01/23 09:03:53;;;;;;;53.63;17.23;;;;;;;2.72;67.98;102650.03;1840507;76;21069;-55
2023/01/23 09:06:23;;;;;;;46.23;16.12;;;;;;;2.89;67.90;102653.91;1832769;76;21496;-55
2023/01/23 09:08:51;;;;;;;57.23;17.67;;;;;;;2.93;67.78;102653.13;1837889;76;21513;-56
2023/01/23 09:11:22;;;;;;;48.10;16.60;;;;;;;2.96;67.54;102660.14;1851167;76;21096;-56
2023/01/23 09:13:50;;;;;;;52.43;19.17;;;;;;;2.99;67.34;102654.59;1844048;76;21247;-55
2023/01/23 09:16:19;;;;;;;56.85;17.85;;;;;;;3.08;67.16;102659.09;1864037;76;21124;-56
2023/01/23 09:18:49;;;;;;;55.88;19.67;;;;;;;3.14;67.11;102660.99;1821116;76;21064;-56
2023/01/23 09:21:18;;;;;;;61.50;18.80;;;;;;;3.13;67.01;102663.99;1842616;78;21126;-56
2023/01/23 09:23:46;;;;;;;44.75;15.63;;;;;;;3.15;67.01;102659.70;1848043;76;21181;-54
2023/01/23 09:26:18;;;;;;;47.58;13.70;;;;;;;3.17;66.96;102659.73;1841468;76;21094;-56
2023/01/23 09:28:47;;;;;;;52.55;19.37;;;;;;;3.12;66.92;102654.45;1842766;77;21223;-59
2023/01/23 09:31:17;;;;;;;55.80;18.70;;;;;;;3.06;66.95;102656.49;1843246;76;21067;-58
2023/01/23 09:33:48;;;;;;;31.68;10.05;;;;;;;3.01;66.97;102658.09;1844658;77;21138;-54
2023/01/23 09:36:16;;;;;;;44.53;15.18;;;;;;;3.04;67.05;102652.98;1843169;76;21100;-56
2023/01/23 09:38:46;;;;;;;39.70;12.95;;;;;;;3.07;66.94;102650.42;1845860;76;21567;-57
2023/01/23 09:41:21;;;;;;;40.00;14.58;;;;;;;3.19;66.91;102650.23;1874377;76;21157;-58
2023/01/23 09:44:09;;;;;;;22.75;8.48;;;;;;;3.28;66.82;102647.83;1876112;76;21092;-56
2023/01/23 09:46:41;;;;;;;21.50;9.95;;;;;;;3.21;66.71;102642.03;1828470;76;21095;-56
2023/01/23 09:49:21;;;;;;;32.10;12.37;;;;;;;3.18;66.79;102647.20;1850698;76;21074;-57
2023/01/23 09:52:04;;;;;;;45.67;16.27;;;;;;;3.30;66.72;102646.14;1826512;77;21059;-57
2023/01/23 09:55:09;;;;;;;52.73;15.75;;;;;;;3.44;66.52;102649.05;1801179;79;21423;-51
2023/01/23 09:57:41;;;;;;;33.40;14.05;;;;;;;3.46;66.39;102644.32;1822841;76;21026;-57
2023/01/23 10:00:15;;;;;;;44.63;13.32;;;;;;;3.53;66.35;102645.77;1862699;77;21518;-57
2023/01/23 10:02:45;;;;;;;42.27;16.15;;;;;;;3.56;66.26;102648.41;1861876;76;21063;-58
2023/01/23 10:05:19;;;;;;;35.52;11.48;;;;;;;3.43;66.15;102651.19;1785814;80;21059;-58
2023/01/23 10:08:02;;;;;;;50.35;16.95;;;;;;;3.35;66.26;102651.03;1817261;77;21064;-52
2023/01/23 10:10:59;;;;;;;42.85;15.15;;;;;;;3.30;66.40;102651.34;1818459;77;21506;-53
2023/01/23 10:13:57;;;;;;;35.15;12.90;;;;;;;3.39;66.39;102641.13;1821497;77;21655;-53
2023/01/23 10:16:35;;;;;;;54.53;16.75;;;;;;;3.86;65.86;102636.01;1797534;77;21190;-53
2023/01/23 10:19:12;;;;;;;40.98;12.50;;;;;;;4.39;65.01;102635.23;1833871;77;21111;-54
2023/01/23 10:21:49;;;;;;;36.33;13.60;;;;;;;4.97;64.16;102632.64;1863582;77;21043;-53
2023/01/23 10:24:33;;;;;;;37.80;14.18;;;;;;;5.66;62.82;102621.34;1841572;77;21496;-53
2023/01/23 10:27:17;;;;;;;37.05;12.90;;;;;;;6.93;60.35;102625.14;1839395;77;21051;-54
2023/01/23 10:29:46;;;;;;;;;;;;;;;8.82;57.09;102625.19;1845596;77;21129;-53
2023/01/23 10:32:18;;;;;;;27.45;11.35;;;;;;;10.02;53.92;102624.24;1842981;77;20219;-54
2023/01/23 10:35:05;;;;;;;38.23;12.55;;;;;;;10.30;52.55;102625.81;1823534;77;21087;-54
2023/01/23 10:38:01;;;;;;;50.48;13.93;;;;;;;10.43;51.36;102629.67;1817252;78;21141;-55
2023/01/23 10:43:19;;;;;;;39.67;14.75;;;;;;;11.12;50.57;102621.56;1820238;78;21151;-55
2023/01/23 10:45:49;;;;;;;43.73;15.68;;;;;;;10.23;52.10;102617.08;1818137;77;21130;-53
2023/01/23 10:48:42;;;;;;;56.25;19.77;;;;;;;10.67;51.60;102615.86;1827292;78;21698;-53
2023/01/23 10:51:31;;;;;;;69.10;27.27;;;;;;;11.01;51.14;102609.81;1836305;77;21139;-57
2023/01/23 10:54:17;;;;;;;43.23;14.65;;;;;;;11.19;50.90;102610.05;1840626;77;22282;-59
2023/01/23 10:56:58;;;;;;;45.23;15.15;;;;;;;11.81;49.81;102607.06;1828234;77;21043;-59
2023/01/23 10:59:35;;;;;;;44.98;14.58;;;;;;;12.24;49.11;102597.18;1815564;79;22064;-60
2023/01/23 11:02:16;;;;;;;34.90;13.58;;;;;;;12.39;48.60;102602.66;1816373;77;21137;-59
2023/01/23 11:04:48;;;;;;;45.20;15.80;;;;;;;12.39;48.33;102597.37;1828074;78;21055;-57
2023/01/23 11:07:22;;;;;;;40.20;14.25;;;;;;;12.44;48.24;102599.49;1827720;77;21490;-57
2023/01/23 11:10:03;;;;;;;35.70;11.20;;;;;;;12.62;47.84;102599.63;1827174;77;21149;-56
2023/01/23 11:12:34;;;;;;;39.65;14.78;;;;;;;12.89;47.26;102595.58;1851631;77;21103;-54
2023/01/23 11:15:15;;;;;;;32.13;11.20;;;;;;;12.88;47.16;102591.20;1847938;77;21597;-54
2023/01/23 11:17:47;;;;;;;42.35;14.30;;;;;;;12.64;47.58;102597.36;1848074;77;21530;-58
2023/01/23 11:20:36;;;;;;;39.40;14.75;;;;;;;11.97;48.82;102591.00;1831291;76;21077;-56
2023/01/23 11:23:16;;;;;;;39.38;14.23;;;;;;;11.70;49.39;102600.61;1824853;77;21117;-55
2023/01/23 11:25:55;;;;;;;41.25;14.10;;;;;;;11.74;48.90;102598.34;1827019;77;21133;-54
2023/01/23 11:28:33;;;;;;;42.40;14.53;;;;;;;11.80;48.04;102596.92;1827232;77;21102;-55
2023/01/23 11:31:11;;;;;;;36.93;14.78;;;;;;;12.08;47.62;102589.94;1862525;77;21173;-54
2023/01/23 11:34:05;;;;;;;43.33;14.78;;;;;;;12.24;46.89;102595.41;1859798;76;21040;-53
2023/01/23 11:36:35;;;;;;;40.83;15.25;;;;;;;12.31;47.07;102597.05;1848386;76;21525;-54
2023/01/23 11:39:15;;;;;;;43.90;14.50;;;;;;;12.27;47.42;102597.14;1826382;76;21151;-55
2023/01/23 11:41:40;;;;;;;37.50;13.72;;;;;;;12.52;47.11;102604.18;1829790;76;21602;-54
2023/01/23 11:44:24;;;;;;;46.13;15.45;;;;;;;12.57;47.03;102600.16;1853861;76;21047;-50
2023/01/23 11:47:20;;;;;;;40.43;14.70;;;;;;;12.58;46.93;102597.48;1857027;76;21122;-52
2023/01/23 11:50:12;;;;;;;37.70;13.50;;;;;;;12.74;46.80;102601.59;1827123;77;21116;-56